CheckWX is a tool to help pilots better visualize weather data.  It is not intended as a substitute for an official pre-flight weather briefing.

13:20:10 UTC

EGGD METAR
Bristol International Airport
Bristol, United Kingdom
Current

30 mins ago

EGGD 131250Z 26023G35KT 9999 FEW020 SCT029 07/02 Q0985
Observed
Dec-13 @ 12:50 UTC
Wind
  • 260° at 23 KTS
  • Gusting to 35 KTS
Visibility
10,000+ meters
Flight Rules
VFR
Cloud Levels
  • Few at 2,000' AGL
  • Scattered at 2,900' AGL
Temperature
C / 45°F
Dewpoint
C / 36°F
Humidity
71%
Altimeter
29.08" Hg
Pressure
984.92 hPa
Previous

60 mins ago

EGGD 131220Z 26026G39KT 9999 FEW026 BKN036 07/02 Q0984
Observed
Dec-13 @ 12:20 UTC
Wind
  • 260° at 26 KTS
  • Gusting to 39 KTS
Visibility
10,000+ meters
Flight Rules
VFR
Cloud Levels
  • Few at 2,600' AGL
  • Broken at 3,600' AGL
Temperature
C / 45°F
Dewpoint
C / 36°F
Humidity
71%
Altimeter
29.06" Hg
Pressure
983.92 hPa
Previous

2 hours ago

EGGD 131150Z 26024G35KT 9999 SCT024 SCT036 07/02 Q0984
Observed
Dec-13 @ 11:50 UTC
Wind
  • 260° at 24 KTS
  • Gusting to 35 KTS
Visibility
10,000+ meters
Flight Rules
VFR
Cloud Levels
  • Scattered at 2,400' AGL
  • Scattered at 3,600' AGL
Temperature
C / 45°F
Dewpoint
C / 36°F
Humidity
71%
Altimeter
29.06" Hg
Pressure
983.92 hPa